createdAt,value
2022-11-06T00:00:02.292Z,15.50
2022-11-06T00:01:02.063Z,15.50
2022-11-06T00:02:02.770Z,13.80
2022-11-06T00:03:02.517Z,13.80
2022-11-06T00:04:02.276Z,13.80
2022-11-06T00:05:02.243Z,13.80
2022-11-06T00:06:02.289Z,13.80
2022-11-06T00:07:02.778Z,13.30
2022-11-06T00:08:03.270Z,13.30
2022-11-06T00:09:02.735Z,13.30
2022-11-06T00:10:03.239Z,13.30
2022-11-06T00:11:02.871Z,13.30
2022-11-06T00:12:02.353Z,15.80
2022-11-06T00:13:02.753Z,15.80
2022-11-06T00:14:02.601Z,15.80
2022-11-06T00:15:02.411Z,15.80
2022-11-06T00:16:02.593Z,15.80
2022-11-06T00:17:03.076Z,15.80
2022-11-06T00:18:03.103Z,15.80
2022-11-06T00:19:03.310Z,15.80
2022-11-06T00:20:03.130Z,15.80
2022-11-06T00:21:03.223Z,15.80
2022-11-06T00:22:03.139Z,15.60
2022-11-06T00:23:02.929Z,15.60
2022-11-06T00:24:02.966Z,15.60
2022-11-06T00:25:03.067Z,15.60
2022-11-06T00:26:03.268Z,15.60
2022-11-06T00:27:02.901Z,20.00
2022-11-06T00:28:03.190Z,20.00
2022-11-06T00:29:02.652Z,20.00
2022-11-06T00:30:02.930Z,20.00
2022-11-06T00:31:02.672Z,20.00
2022-11-06T00:32:03.018Z,15.70
2022-11-06T00:33:03.294Z,15.70
2022-11-06T00:34:03.130Z,15.70
2022-11-06T00:35:03.245Z,15.70
2022-11-06T00:36:03.297Z,15.70
2022-11-06T00:37:02.794Z,20.00
2022-11-06T00:38:02.679Z,20.00
2022-11-06T00:39:03.152Z,20.00
2022-11-06T00:40:03.099Z,20.00
2022-11-06T00:41:02.773Z,20.00
2022-11-06T00:42:02.301Z,14.70
2022-11-06T00:43:02.065Z,14.70
2022-11-06T00:44:02.248Z,14.70
2022-11-06T00:45:02.117Z,14.70
2022-11-06T00:46:02.462Z,14.70
2022-11-06T00:47:03.258Z,16.80
2022-11-06T00:48:02.745Z,16.80
2022-11-06T00:49:03.346Z,16.80
2022-11-06T00:50:02.978Z,16.80
2022-11-06T00:51:02.635Z,16.80
2022-11-06T00:52:03.019Z,16.30
2022-11-06T00:53:02.838Z,16.30
2022-11-06T00:54:03.060Z,16.30
2022-11-06T00:55:02.840Z,16.30
2022-11-06T00:56:03.402Z,16.30
2022-11-06T00:57:02.784Z,13.90
2022-11-06T00:58:02.728Z,13.90
2022-11-06T00:59:02.423Z,13.90
2022-11-06T01:00:02.920Z,13.90
2022-11-06T01:01:02.487Z,13.90
2022-11-06T01:02:02.990Z,16.40
2022-11-06T01:03:02.814Z,16.40
2022-11-06T01:04:02.594Z,16.40
2022-11-06T01:05:02.645Z,16.40
2022-11-06T01:06:03.033Z,16.40
2022-11-06T01:07:02.860Z,19.50
2022-11-06T01:08:02.391Z,19.50
2022-11-06T01:09:02.484Z,19.50
2022-11-06T01:10:02.337Z,19.50
2022-11-06T01:11:02.500Z,19.50
2022-11-06T01:12:18.185Z,15.90
2022-11-06T01:13:02.950Z,15.90
2022-11-06T01:14:02.729Z,15.90
2022-11-06T01:15:03.069Z,15.90
2022-11-06T01:16:02.706Z,15.90
2022-11-06T01:17:02.619Z,15.80
2022-11-06T01:18:02.464Z,15.80
2022-11-06T01:19:03.120Z,15.80
2022-11-06T01:20:02.444Z,15.80
2022-11-06T01:21:02.746Z,15.80
2022-11-06T01:22:02.521Z,15.40
2022-11-06T01:23:02.842Z,15.40
2022-11-06T01:24:02.517Z,15.40
2022-11-06T01:25:03.004Z,15.40
2022-11-06T01:26:02.779Z,15.40
2022-11-06T01:27:25.425Z,14.80
2022-11-06T01:28:02.473Z,14.80
2022-11-06T01:29:02.240Z,14.80
2022-11-06T01:30:02.625Z,14.80
2022-11-06T01:31:02.059Z,14.80
2022-11-06T01:32:03.299Z,15.30
2022-11-06T01:33:02.640Z,15.30
2022-11-06T01:34:02.711Z,15.30
2022-11-06T01:35:03.111Z,15.30
2022-11-06T01:36:02.675Z,15.30
2022-11-06T01:37:02.998Z,12.80
2022-11-06T01:38:03.316Z,12.80
2022-11-06T01:39:02.660Z,12.80
2022-11-06T01:40:02.868Z,12.80
2022-11-06T01:41:03.292Z,12.80
2022-11-06T01:42:02.303Z,13.90
2022-11-06T01:43:01.967Z,13.90
2022-11-06T01:44:02.262Z,13.90
2022-11-06T01:45:02.412Z,13.90
2022-11-06T01:46:01.837Z,13.90
2022-11-06T01:47:02.898Z,16.80
2022-11-06T01:48:02.668Z,16.80
2022-11-06T01:49:02.654Z,16.80
2022-11-06T01:50:02.710Z,16.80
2022-11-06T01:51:02.523Z,16.80
2022-11-06T01:52:02.636Z,15.70
2022-11-06T01:53:02.586Z,15.70
2022-11-06T01:54:03.074Z,15.70
2022-11-06T01:55:02.491Z,15.70
2022-11-06T01:56:02.811Z,15.70
2022-11-06T01:57:02.115Z,12.60
2022-11-06T01:58:01.836Z,12.60
2022-11-06T01:59:02.177Z,12.60
2022-11-06T02:00:02.026Z,12.60
2022-11-06T02:01:02.215Z,12.60
2022-11-06T02:02:02.232Z,12.20
2022-11-06T02:03:02.209Z,12.20
2022-11-06T02:04:02.134Z,12.20
2022-11-06T02:05:02.568Z,12.20
2022-11-06T02:06:02.238Z,12.20
2022-11-06T02:07:02.811Z,13.60
2022-11-06T02:08:02.844Z,13.60
2022-11-06T02:09:03.336Z,13.60
2022-11-06T02:10:02.870Z,13.60
2022-11-06T02:11:03.319Z,13.60
2022-11-06T02:12:02.515Z,12.80
2022-11-06T02:13:02.249Z,12.80
2022-11-06T02:14:02.498Z,12.80
2022-11-06T02:15:02.175Z,12.80
2022-11-06T02:16:02.523Z,12.80
2022-11-06T02:17:02.857Z,14.70
2022-11-06T02:18:02.707Z,14.70
2022-11-06T02:19:02.384Z,14.70
2022-11-06T02:20:02.899Z,14.70
2022-11-06T02:21:02.242Z,14.70
2022-11-06T02:22:02.830Z,13.50
2022-11-06T02:23:03.037Z,13.50
2022-11-06T02:24:02.707Z,13.50
2022-11-06T02:25:03.301Z,13.50
2022-11-06T02:26:02.744Z,13.50
2022-11-06T02:27:02.278Z,13.70
2022-11-06T02:28:02.256Z,13.70
2022-11-06T02:29:02.436Z,13.70
2022-11-06T02:30:02.214Z,13.70
2022-11-06T02:31:02.730Z,13.70
2022-11-06T02:32:02.440Z,14.30
2022-11-06T02:33:02.710Z,14.30
2022-11-06T02:34:02.450Z,14.30
2022-11-06T02:35:02.858Z,14.30
2022-11-06T02:36:02.759Z,14.30
2022-11-06T02:37:02.475Z,12.90
2022-11-06T02:38:02.932Z,12.90
2022-11-06T02:39:02.958Z,12.90
2022-11-06T02:40:02.628Z,12.90
2022-11-06T02:41:02.934Z,12.90
2022-11-06T02:42:02.698Z,11.50
2022-11-06T02:43:03.146Z,11.50
2022-11-06T02:44:03.108Z,11.50
2022-11-06T02:45:03.036Z,11.50
2022-11-06T02:46:03.040Z,11.50
2022-11-06T02:47:01.846Z,12.20
2022-11-06T02:48:02.179Z,12.20
2022-11-06T02:49:01.930Z,12.20
2022-11-06T02:50:02.108Z,12.20
2022-11-06T02:51:01.871Z,12.20
2022-11-06T02:52:02.352Z,13.30
2022-11-06T02:53:02.660Z,13.30
2022-11-06T02:54:02.365Z,13.30
2022-11-06T02:55:02.280Z,13.30
2022-11-06T02:56:02.574Z,13.30
2022-11-06T02:57:02.788Z,12.40
2022-11-06T02:58:02.496Z,12.40
2022-11-06T02:59:02.255Z,12.40
2022-11-06T03:00:02.608Z,12.40
2022-11-06T03:01:02.594Z,12.40
2022-11-06T03:02:03.571Z,11.10
2022-11-06T03:03:03.545Z,11.10
2022-11-06T03:04:03.377Z,11.10
2022-11-06T03:05:03.540Z,11.10
2022-11-06T03:06:03.944Z,11.10
2022-11-06T03:07:02.844Z,14.10
2022-11-06T03:08:02.992Z,14.10
2022-11-06T03:09:02.718Z,14.10
2022-11-06T03:10:02.492Z,14.10
2022-11-06T03:11:02.738Z,14.10
2022-11-06T03:12:03.531Z,11.60
2022-11-06T03:13:03.193Z,11.60
2022-11-06T03:14:03.608Z,11.60
2022-11-06T03:15:03.654Z,11.60
2022-11-06T03:16:03.047Z,11.60
2022-11-06T03:17:02.982Z,13.80
2022-11-06T03:18:02.943Z,13.80
2022-11-06T03:19:02.976Z,13.80
2022-11-06T03:20:02.817Z,13.80
2022-11-06T03:21:02.415Z,13.80
2022-11-06T03:22:02.773Z,12.00
2022-11-06T03:23:02.727Z,12.00
2022-11-06T03:24:02.805Z,12.00
2022-11-06T03:25:03.249Z,12.00
2022-11-06T03:26:02.903Z,12.00
2022-11-06T03:27:03.512Z,12.30
2022-11-06T03:28:03.443Z,12.30
2022-11-06T03:29:03.479Z,12.30
2022-11-06T03:30:03.822Z,12.30
2022-11-06T03:31:03.219Z,12.30
2022-11-06T03:32:03.049Z,10.80
2022-11-06T03:33:03.008Z,10.80
2022-11-06T03:34:02.945Z,10.80
2022-11-06T03:35:02.582Z,10.80
2022-11-06T03:36:02.643Z,10.80
2022-11-06T03:37:03.002Z,8.60
2022-11-06T03:38:03.346Z,8.60
2022-11-06T03:39:03.087Z,8.60
2022-11-06T03:40:03.175Z,8.60
2022-11-06T03:41:03.415Z,8.60
2022-11-06T03:42:02.541Z,11.60
2022-11-06T03:43:02.475Z,11.60
2022-11-06T03:44:02.883Z,11.60
2022-11-06T03:45:02.444Z,11.60
2022-11-06T03:46:02.765Z,11.60
2022-11-06T03:47:03.095Z,12.40
2022-11-06T03:48:02.967Z,12.40
2022-11-06T03:49:03.539Z,12.40
2022-11-06T03:50:02.941Z,12.40
2022-11-06T03:51:03.261Z,12.40
2022-11-06T03:52:02.536Z,12.50
2022-11-06T03:53:02.893Z,12.50
2022-11-06T03:54:02.541Z,12.50
2022-11-06T03:55:03.097Z,12.50
2022-11-06T03:56:02.919Z,12.50
2022-11-06T03:57:03.556Z,10.90
2022-11-06T03:58:03.259Z,10.90
2022-11-06T03:59:03.285Z,10.90
2022-11-06T04:00:03.248Z,10.90
2022-11-06T04:01:03.251Z,10.90
2022-11-06T04:02:02.784Z,9.80
2022-11-06T04:03:02.604Z,9.80
2022-11-06T04:04:02.461Z,9.80
2022-11-06T04:05:02.907Z,9.80
2022-11-06T04:06:03.168Z,9.80
2022-11-06T04:07:02.749Z,11.30
2022-11-06T04:08:02.797Z,11.30
2022-11-06T04:09:02.940Z,11.30
2022-11-06T04:10:02.948Z,11.30
2022-11-06T04:11:02.910Z,11.30
2022-11-06T04:12:03.254Z,14.00
2022-11-06T04:13:03.315Z,14.00
2022-11-06T04:14:03.406Z,14.00
2022-11-06T04:15:03.284Z,14.00
2022-11-06T04:16:03.577Z,14.00
2022-11-06T04:17:02.597Z,11.80
2022-11-06T04:18:02.218Z,11.80
2022-11-06T04:19:02.336Z,11.80
2022-11-06T04:20:02.571Z,11.80
2022-11-06T04:21:02.299Z,11.80
2022-11-06T04:22:02.730Z,13.00
2022-11-06T04:23:02.443Z,13.00
2022-11-06T04:24:02.803Z,13.00
2022-11-06T04:25:02.304Z,13.00
2022-11-06T04:26:02.824Z,13.00
2022-11-06T04:27:03.420Z,10.70
2022-11-06T04:28:02.881Z,10.70
2022-11-06T04:29:03.254Z,10.70
2022-11-06T04:30:02.869Z,10.70
2022-11-06T04:31:03.093Z,10.70
2022-11-06T04:32:02.471Z,12.60
2022-11-06T04:33:02.166Z,12.60
2022-11-06T04:34:02.371Z,12.60
2022-11-06T04:35:02.793Z,12.60
2022-11-06T04:36:02.386Z,12.60
2022-11-06T04:37:02.890Z,11.20
2022-11-06T04:38:02.524Z,11.20
2022-11-06T04:39:02.707Z,11.20
2022-11-06T04:40:02.455Z,11.20
2022-11-06T04:41:02.446Z,11.20
2022-11-06T04:42:02.676Z,11.70
2022-11-06T04:43:03.061Z,11.70
2022-11-06T04:44:02.646Z,11.70
2022-11-06T04:45:02.772Z,11.70
2022-11-06T04:46:03.108Z,11.70
2022-11-06T04:47:02.554Z,13.30
2022-11-06T04:48:02.330Z,13.30
2022-11-06T04:49:02.303Z,13.30
2022-11-06T04:50:02.023Z,13.30
2022-11-06T04:51:02.345Z,13.30
2022-11-06T04:52:02.992Z,12.10
2022-11-06T04:53:02.844Z,12.10
2022-11-06T04:54:02.587Z,12.10
2022-11-06T04:55:02.431Z,12.10
2022-11-06T04:56:02.917Z,12.10
2022-11-06T04:57:02.583Z,8.20
2022-11-06T04:58:02.486Z,8.20
2022-11-06T04:59:02.409Z,8.20
2022-11-06T05:00:02.003Z,8.20
2022-11-06T05:01:02.062Z,8.20
2022-11-06T05:02:03.179Z,14.20
2022-11-06T05:03:03.047Z,14.20
2022-11-06T05:04:02.792Z,14.20
2022-11-06T05:05:03.217Z,14.20
2022-11-06T05:06:03.442Z,14.20
2022-11-06T05:07:02.449Z,13.40
2022-11-06T05:08:02.342Z,13.40
2022-11-06T05:09:02.778Z,13.40
2022-11-06T05:10:02.227Z,13.40
2022-11-06T05:11:02.545Z,13.40
2022-11-06T05:12:03.147Z,11.90
2022-11-06T05:13:02.522Z,11.90
2022-11-06T05:14:02.893Z,11.90
2022-11-06T05:15:02.551Z,11.90
2022-11-06T05:16:02.923Z,11.90
2022-11-06T05:17:01.861Z,10.00
2022-11-06T05:18:02.318Z,10.00
2022-11-06T05:19:02.158Z,10.00
2022-11-06T05:20:02.482Z,10.00
2022-11-06T05:21:01.921Z,10.00
2022-11-06T05:22:02.897Z,7.70
2022-11-06T05:23:02.791Z,7.70
2022-11-06T05:24:02.809Z,7.70
2022-11-06T05:25:02.440Z,7.70
2022-11-06T05:26:02.672Z,7.70
2022-11-06T05:27:03.031Z,11.50
2022-11-06T05:28:02.971Z,11.50
2022-11-06T05:29:02.412Z,11.50
2022-11-06T05:30:02.998Z,11.50
2022-11-06T05:31:02.332Z,11.50
2022-11-06T05:32:02.617Z,8.30
2022-11-06T05:33:02.992Z,8.30
2022-11-06T05:34:02.711Z,8.30
2022-11-06T05:35:02.946Z,8.30
2022-11-06T05:36:02.539Z,8.30
2022-11-06T05:37:02.517Z,12.30
2022-11-06T05:38:02.862Z,12.30
2022-11-06T05:39:02.648Z,12.30
2022-11-06T05:40:02.713Z,12.30
2022-11-06T05:41:02.681Z,12.30
2022-11-06T05:42:02.657Z,13.00
2022-11-06T05:43:03.105Z,13.00
2022-11-06T05:44:02.446Z,13.00
2022-11-06T05:45:02.902Z,13.00
2022-11-06T05:46:02.775Z,13.00
2022-11-06T05:47:02.172Z,14.60
2022-11-06T05:48:02.487Z,14.60
2022-11-06T05:49:02.281Z,14.60
2022-11-06T05:50:02.489Z,14.60
2022-11-06T05:51:02.411Z,14.60
2022-11-06T05:52:01.788Z,10.10
2022-11-06T05:53:02.052Z,10.10
2022-11-06T05:54:01.750Z,10.10
2022-11-06T05:55:02.177Z,10.10
2022-11-06T05:56:02.164Z,10.10
2022-11-06T05:57:01.931Z,11.60
2022-11-06T05:58:02.256Z,11.60
2022-11-06T05:59:02.290Z,11.60
2022-11-06T06:00:01.999Z,11.60
2022-11-06T06:01:02.004Z,11.60
2022-11-06T06:02:03.704Z,10.90
2022-11-06T06:03:03.412Z,10.90
2022-11-06T06:04:03.615Z,10.90
2022-11-06T06:05:03.824Z,10.90
2022-11-06T06:06:03.464Z,10.90
2022-11-06T06:07:03.455Z,12.70
2022-11-06T06:08:03.159Z,12.70
2022-11-06T06:09:03.314Z,12.70
2022-11-06T06:10:03.369Z,12.70
2022-11-06T06:11:03.675Z,12.70
2022-11-06T06:12:02.838Z,13.70
2022-11-06T06:13:02.374Z,13.70
2022-11-06T06:14:02.738Z,13.70
2022-11-06T06:15:02.235Z,13.70
2022-11-06T06:16:02.472Z,13.70
2022-11-06T06:17:03.172Z,13.90
2022-11-06T06:18:03.083Z,13.90
2022-11-06T06:19:03.267Z,13.90
2022-11-06T06:20:03.167Z,13.90
2022-11-06T06:21:02.947Z,13.90
2022-11-06T06:22:03.086Z,11.70
2022-11-06T06:23:03.568Z,11.70
2022-11-06T06:24:03.178Z,11.70
2022-11-06T06:25:03.645Z,11.70
2022-11-06T06:26:03.283Z,9.40
2022-11-06T06:27:02.861Z,9.40
2022-11-06T06:28:02.950Z,9.40
2022-11-06T06:29:02.830Z,9.40
2022-11-06T06:30:02.645Z,9.40
2022-11-06T06:31:03.046Z,9.90
2022-11-06T06:32:03.211Z,9.90
2022-11-06T06:33:03.228Z,9.90
2022-11-06T06:34:03.083Z,9.90
2022-11-06T06:35:03.515Z,9.90
2022-11-06T06:36:03.116Z,9.70
2022-11-06T06:37:02.901Z,9.70
2022-11-06T06:38:02.702Z,9.70
2022-11-06T06:39:02.803Z,9.70
2022-11-06T06:40:03.282Z,9.70
2022-11-06T06:41:03.080Z,11.70
2022-11-06T06:42:03.141Z,11.70
2022-11-06T06:43:03.244Z,11.70
2022-11-06T06:44:03.205Z,11.70
2022-11-06T06:45:03.170Z,11.70
2022-11-06T06:46:03.298Z,14.70
2022-11-06T06:47:03.513Z,14.70
2022-11-06T06:48:03.284Z,14.70
2022-11-06T06:49:03.239Z,14.70
2022-11-06T06:50:03.419Z,14.70
2022-11-06T06:51:03.466Z,15.30
2022-11-06T06:52:02.567Z,15.30
2022-11-06T06:53:02.401Z,15.30
2022-11-06T06:54:02.242Z,15.30
2022-11-06T06:55:02.639Z,15.30
2022-11-06T06:56:02.504Z,10.50
2022-11-06T06:57:03.235Z,10.50
2022-11-06T06:58:03.165Z,10.50
2022-11-06T06:59:02.897Z,10.50
2022-11-06T07:00:02.729Z,10.50
2022-11-06T07:01:03.228Z,12.60
2022-11-06T07:02:02.762Z,12.60
2022-11-06T07:03:02.649Z,12.60
2022-11-06T07:04:04.401Z,12.60
2022-11-06T07:05:02.567Z,12.60
2022-11-06T07:06:02.806Z,11.90
2022-11-06T07:07:02.071Z,11.90
2022-11-06T07:08:01.887Z,11.90
2022-11-06T07:09:01.581Z,11.90
2022-11-06T07:10:01.876Z,11.90
2022-11-06T07:11:02.034Z,14.20
2022-11-06T07:12:02.597Z,14.20
2022-11-06T07:13:02.228Z,14.20
2022-11-06T07:14:02.643Z,14.20
2022-11-06T07:15:02.805Z,14.20
2022-11-06T07:16:02.360Z,10.90
2022-11-06T07:17:02.359Z,10.90
2022-11-06T07:18:02.196Z,10.90
2022-11-06T07:19:02.191Z,10.90
2022-11-06T07:20:01.778Z,10.90
2022-11-06T07:21:02.304Z,17.00
2022-11-06T07:22:02.747Z,17.00
2022-11-06T07:23:02.544Z,17.00
2022-11-06T07:24:02.737Z,17.00
2022-11-06T07:25:02.408Z,17.00
2022-11-06T07:26:02.870Z,15.00
2022-11-06T07:27:02.121Z,15.00
2022-11-06T07:28:02.944Z,15.00
2022-11-06T07:29:01.622Z,15.00
2022-11-06T07:30:02.183Z,15.00
2022-11-06T07:31:01.794Z,12.60
2022-11-06T07:32:02.360Z,12.60
2022-11-06T07:33:02.112Z,12.60
2022-11-06T07:34:01.894Z,12.60
2022-11-06T07:35:01.858Z,12.60
2022-11-06T07:36:01.816Z,13.10
2022-11-06T07:37:07.331Z,13.10
2022-11-06T07:38:02.686Z,13.10
2022-11-06T07:39:02.290Z,13.10
2022-11-06T07:40:02.082Z,13.10
2022-11-06T07:41:02.559Z,18.50
2022-11-06T07:42:01.732Z,18.50
2022-11-06T07:43:01.630Z,18.50
2022-11-06T07:44:01.819Z,18.50
2022-11-06T07:45:01.831Z,18.50
2022-11-06T07:46:02.105Z,13.20
2022-11-06T07:47:02.250Z,13.20
2022-11-06T07:48:01.949Z,13.20
2022-11-06T07:49:02.188Z,13.20
2022-11-06T07:50:01.866Z,13.20
2022-11-06T07:51:01.996Z,16.50
2022-11-06T07:52:02.602Z,16.50
2022-11-06T07:53:02.424Z,16.50
2022-11-06T07:54:02.275Z,16.50
2022-11-06T07:55:02.157Z,16.50
2022-11-06T07:56:02.153Z,15.70
2022-11-06T07:57:02.647Z,15.70
2022-11-06T07:58:02.328Z,15.70
2022-11-06T07:59:02.301Z,15.70
2022-11-06T08:00:02.444Z,15.70
2022-11-06T08:01:02.740Z,15.10
2022-11-06T08:02:03.262Z,15.10
2022-11-06T08:03:02.615Z,15.10
2022-11-06T08:04:03.021Z,15.10
2022-11-06T08:05:02.836Z,15.10
2022-11-06T08:06:02.506Z,12.90
2022-11-06T08:07:03.287Z,12.90
2022-11-06T08:08:03.629Z,12.90
2022-11-06T08:09:03.558Z,12.90
2022-11-06T08:10:03.381Z,12.90
2022-11-06T08:11:03.519Z,13.00
2022-11-06T08:12:03.412Z,13.00
2022-11-06T08:13:02.853Z,13.00
2022-11-06T08:14:02.738Z,13.00
2022-11-06T08:15:03.318Z,13.00
2022-11-06T08:16:03.355Z,11.70
2022-11-06T08:17:02.793Z,11.70
2022-11-06T08:18:02.576Z,11.70
2022-11-06T08:19:03.006Z,11.70
2022-11-06T08:20:02.766Z,11.70
2022-11-06T08:21:02.720Z,15.80
2022-11-06T08:22:02.789Z,15.80
2022-11-06T08:23:03.291Z,15.80
2022-11-06T08:24:02.729Z,15.80
2022-11-06T08:25:02.797Z,15.80
2022-11-06T08:26:03.311Z,17.40
2022-11-06T08:27:02.517Z,17.40
2022-11-06T08:28:02.390Z,17.40
2022-11-06T08:29:02.918Z,17.40
2022-11-06T08:30:02.496Z,17.40
2022-11-06T08:31:02.553Z,11.30
2022-11-06T08:32:02.845Z,11.30
2022-11-06T08:33:02.748Z,11.30
2022-11-06T08:34:02.988Z,11.30
2022-11-06T08:35:02.843Z,11.30
2022-11-06T08:36:03.200Z,14.20
2022-11-06T08:37:02.956Z,14.20
2022-11-06T08:38:03.515Z,14.20
2022-11-06T08:39:03.224Z,14.20
2022-11-06T08:40:02.886Z,14.20
2022-11-06T08:41:03.467Z,12.80
2022-11-06T08:42:02.524Z,12.80
2022-11-06T08:43:02.680Z,12.80
2022-11-06T08:44:02.905Z,12.80
2022-11-06T08:45:03.033Z,12.80
2022-11-06T08:46:02.426Z,14.80
2022-11-06T08:47:02.621Z,14.80
2022-11-06T08:48:03.096Z,14.80
2022-11-06T08:49:02.895Z,14.80
2022-11-06T08:50:02.917Z,14.80
2022-11-06T08:51:02.572Z,11.90
2022-11-06T08:52:03.009Z,11.90
2022-11-06T08:53:03.271Z,11.90
2022-11-06T08:54:03.131Z,11.90
2022-11-06T08:55:03.144Z,11.90
2022-11-06T08:56:03.060Z,14.80
2022-11-06T08:57:02.707Z,14.80
2022-11-06T08:58:02.478Z,14.80
2022-11-06T08:59:02.974Z,14.80
2022-11-06T09:00:02.490Z,14.80
2022-11-06T09:01:03.191Z,12.40
2022-11-06T09:02:03.099Z,12.40
2022-11-06T09:03:03.302Z,12.40
2022-11-06T09:04:02.710Z,12.40
2022-11-06T09:05:03.258Z,12.40
2022-11-06T09:06:03.202Z,10.10
2022-11-06T09:07:02.651Z,10.10
2022-11-06T09:08:02.842Z,10.10
2022-11-06T09:09:02.506Z,10.10
2022-11-06T09:10:03.020Z,10.10
2022-11-06T09:11:02.365Z,15.60
2022-11-06T09:12:02.843Z,15.60
2022-11-06T09:13:02.711Z,15.60
2022-11-06T09:14:03.146Z,15.60
2022-11-06T09:15:03.214Z,15.60
2022-11-06T09:16:02.845Z,15.80
2022-11-06T09:17:03.489Z,15.80
2022-11-06T09:18:03.364Z,15.80
2022-11-06T09:19:03.642Z,15.80
2022-11-06T09:20:03.767Z,15.80
2022-11-06T09:21:03.604Z,13.70
2022-11-06T09:22:02.754Z,13.70
2022-11-06T09:23:02.491Z,13.70
2022-11-06T09:24:02.412Z,13.70
2022-11-06T09:25:04.403Z,13.70
2022-11-06T09:26:02.895Z,15.30
2022-11-06T09:27:02.863Z,15.30
2022-11-06T09:28:02.959Z,15.30
2022-11-06T09:29:02.875Z,15.30
2022-11-06T09:30:03.001Z,15.30
2022-11-06T09:31:02.726Z,16.70
2022-11-06T09:32:02.939Z,16.70
2022-11-06T09:33:03.111Z,16.70
2022-11-06T09:34:03.256Z,16.70
2022-11-06T09:35:02.775Z,16.70
2022-11-06T09:36:02.880Z,10.90
2022-11-06T09:37:03.373Z,10.90
2022-11-06T09:38:03.529Z,10.90
2022-11-06T09:39:03.797Z,10.90
2022-11-06T09:40:06.341Z,10.90
2022-11-06T09:41:03.560Z,14.30
2022-11-06T09:42:03.466Z,14.30
2022-11-06T09:43:03.518Z,14.30
2022-11-06T09:44:05.604Z,14.30
2022-11-06T09:45:03.337Z,14.30
2022-11-06T09:46:03.710Z,12.20
2022-11-06T09:47:03.532Z,12.20
2022-11-06T09:48:03.356Z,12.20
2022-11-06T09:49:03.233Z,12.20
2022-11-06T09:50:03.189Z,12.20
2022-11-06T09:51:03.615Z,11.40
2022-11-06T09:52:02.909Z,11.40
2022-11-06T09:53:06.067Z,11.40
2022-11-06T09:54:02.989Z,11.40
2022-11-06T09:55:02.358Z,11.40
2022-11-06T09:56:02.908Z,11.40
2022-11-06T09:57:02.742Z,11.40
2022-11-06T09:58:02.723Z,11.40
2022-11-06T09:59:02.829Z,11.40
2022-11-06T10:00:03.012Z,11.40
2022-11-06T10:01:03.068Z,12.70
2022-11-06T10:02:03.305Z,12.70
2022-11-06T10:03:03.193Z,12.70
2022-11-06T10:04:03.216Z,12.70
2022-11-06T10:05:02.871Z,12.70
2022-11-06T10:06:03.232Z,11.30
2022-11-06T10:07:03.123Z,11.30
2022-11-06T10:08:03.314Z,11.30
2022-11-06T10:09:02.991Z,11.30
2022-11-06T10:10:02.967Z,11.30
2022-11-06T10:11:03.148Z,14.50
2022-11-06T10:12:02.699Z,14.50
2022-11-06T10:13:02.748Z,14.50
2022-11-06T10:14:02.807Z,14.50
2022-11-06T10:15:02.624Z,14.50
2022-11-06T10:16:02.447Z,9.50
2022-11-06T10:17:02.858Z,9.50
2022-11-06T10:18:02.765Z,9.50
2022-11-06T10:19:02.413Z,9.50
2022-11-06T10:20:02.869Z,9.50
2022-11-06T10:21:02.444Z,12.40
2022-11-06T10:22:02.576Z,12.40
2022-11-06T10:23:02.336Z,12.40
2022-11-06T10:24:02.236Z,12.40
2022-11-06T10:25:02.373Z,12.40
2022-11-06T10:26:02.290Z,11.30
2022-11-06T10:27:02.872Z,11.30
2022-11-06T10:28:02.841Z,11.30
2022-11-06T10:29:02.887Z,11.30
2022-11-06T10:30:02.611Z,11.30
2022-11-06T10:31:02.558Z,10.80
2022-11-06T10:32:02.916Z,10.80
2022-11-06T10:33:02.839Z,10.80
2022-11-06T10:34:02.574Z,10.80
2022-11-06T10:35:02.726Z,10.80
2022-11-06T10:36:02.634Z,8.20
2022-11-06T10:37:02.414Z,8.20
2022-11-06T10:38:02.474Z,8.20
2022-11-06T10:39:02.446Z,8.20
2022-11-06T10:40:02.033Z,8.20
2022-11-06T10:41:02.469Z,13.50
2022-11-06T10:42:02.609Z,13.50
2022-11-06T10:43:02.275Z,13.50
2022-11-06T10:44:02.033Z,13.50
2022-11-06T10:45:02.341Z,13.50
2022-11-06T10:46:02.558Z,12.60
2022-11-06T10:47:02.861Z,12.60
2022-11-06T10:48:02.796Z,12.60
2022-11-06T10:49:02.644Z,12.60
2022-11-06T10:50:02.584Z,12.60
2022-11-06T10:51:02.448Z,13.50
2022-11-06T10:52:03.038Z,13.50
2022-11-06T10:53:02.904Z,13.50
2022-11-06T10:54:02.756Z,13.50
2022-11-06T10:55:02.872Z,13.50
2022-11-06T10:56:06.831Z,11.40
2022-11-06T10:57:02.524Z,11.40
2022-11-06T10:58:02.531Z,11.40
2022-11-06T10:59:02.406Z,11.40
2022-11-06T11:00:02.222Z,11.40
2022-11-06T11:01:02.487Z,11.80
2022-11-06T11:02:03.555Z,11.80
2022-11-06T11:03:02.641Z,11.80
2022-11-06T11:04:02.421Z,11.80
2022-11-06T11:05:02.754Z,11.80
2022-11-06T11:06:02.687Z,14.90
2022-11-06T11:07:03.073Z,14.90
2022-11-06T11:08:02.704Z,14.90
2022-11-06T11:09:02.679Z,14.90
2022-11-06T11:10:02.607Z,14.90
2022-11-06T11:11:05.344Z,10.90
2022-11-06T11:12:03.354Z,10.90
2022-11-06T11:13:08.072Z,10.90
2022-11-06T11:14:02.735Z,10.90
2022-11-06T11:15:03.159Z,10.90
2022-11-06T11:16:03.047Z,8.40
2022-11-06T11:17:01.988Z,8.40
2022-11-06T11:18:02.622Z,8.40
2022-11-06T11:19:02.412Z,8.40
2022-11-06T11:20:02.313Z,8.40
2022-11-06T11:21:02.176Z,9.40
2022-11-06T11:22:02.677Z,9.40
2022-11-06T11:23:03.314Z,9.40
2022-11-06T11:24:02.882Z,9.40
2022-11-06T11:25:03.295Z,9.40
2022-11-06T11:26:02.902Z,10.70
2022-11-06T11:27:02.795Z,10.70
2022-11-06T11:28:04.852Z,10.70
2022-11-06T11:29:02.455Z,10.70
2022-11-06T11:30:02.247Z,10.70
2022-11-06T11:31:02.108Z,10.50
2022-11-06T11:32:02.250Z,10.50
2022-11-06T11:33:03.099Z,10.50
2022-11-06T11:34:02.509Z,10.50
2022-11-06T11:35:03.025Z,10.50
2022-11-06T11:36:02.645Z,8.20
2022-11-06T11:37:02.645Z,8.20
2022-11-06T11:38:02.123Z,8.20
2022-11-06T11:39:01.980Z,8.20
2022-11-06T11:40:01.818Z,8.20
2022-11-06T11:41:02.395Z,9.90
2022-11-06T11:42:02.260Z,9.90
2022-11-06T11:43:02.103Z,9.90
2022-11-06T11:44:02.532Z,9.90
2022-11-06T11:45:02.580Z,9.90
2022-11-06T11:46:02.298Z,6.90
2022-11-06T11:47:05.562Z,6.90
2022-11-06T11:48:02.664Z,6.90
2022-11-06T11:49:02.851Z,6.90
2022-11-06T11:50:02.764Z,6.90
2022-11-06T11:51:02.689Z,7.70
2022-11-06T11:52:03.144Z,7.70
2022-11-06T11:53:08.655Z,7.70
2022-11-06T11:54:03.206Z,7.70
2022-11-06T11:55:02.906Z,7.70
2022-11-06T11:56:02.735Z,7.00
2022-11-06T11:57:05.361Z,7.00
2022-11-06T11:58:02.687Z,7.00
2022-11-06T11:59:02.561Z,7.00
2022-11-06T12:00:02.729Z,7.00
2022-11-06T12:01:03.085Z,6.40
2022-11-06T12:02:02.768Z,6.40
2022-11-06T12:03:02.796Z,6.40
2022-11-06T12:04:02.377Z,6.40
2022-11-06T12:05:02.604Z,6.40
2022-11-06T12:06:02.518Z,8.60
2022-11-06T12:07:02.634Z,8.60
2022-11-06T12:08:03.203Z,8.60
2022-11-06T12:09:02.882Z,8.60
2022-11-06T12:10:02.771Z,8.60
2022-11-06T12:11:02.768Z,6.90
2022-11-06T12:12:03.217Z,6.90
2022-11-06T12:13:02.531Z,6.90
2022-11-06T12:14:02.567Z,6.90
2022-11-06T12:15:02.769Z,6.90
2022-11-06T12:16:02.669Z,6.80
2022-11-06T12:17:02.566Z,6.80
2022-11-06T12:18:03.072Z,6.80
2022-11-06T12:19:03.011Z,6.80
2022-11-06T12:20:02.952Z,6.80
2022-11-06T12:21:03.397Z,6.20
2022-11-06T12:22:02.990Z,6.20
2022-11-06T12:23:02.735Z,6.20
2022-11-06T12:24:02.704Z,6.20
2022-11-06T12:25:02.881Z,6.20
2022-11-06T12:26:02.463Z,6.20
2022-11-06T12:27:03.070Z,6.20
2022-11-06T12:28:02.366Z,6.20
2022-11-06T12:29:05.352Z,6.20
2022-11-06T12:30:02.328Z,6.20
2022-11-06T12:31:02.401Z,5.20
2022-11-06T12:32:02.159Z,5.20
2022-11-06T12:33:02.819Z,5.20
2022-11-06T12:34:07.225Z,5.20
2022-11-06T12:35:02.382Z,5.20
2022-11-06T12:36:02.912Z,4.10
2022-11-06T12:37:02.530Z,4.10
2022-11-06T12:38:03.077Z,4.10
2022-11-06T12:39:03.104Z,4.10
2022-11-06T12:40:02.845Z,4.10
2022-11-06T12:41:02.729Z,6.60
2022-11-06T12:42:02.733Z,6.60
2022-11-06T12:43:02.920Z,6.60
2022-11-06T12:44:03.112Z,6.60
2022-11-06T12:45:02.878Z,6.60
2022-11-06T12:46:03.661Z,6.20
2022-11-06T12:47:02.956Z,6.20
2022-11-06T12:48:02.095Z,6.20
2022-11-06T12:49:02.011Z,6.20
2022-11-06T12:50:02.168Z,6.20
2022-11-06T12:51:02.331Z,6.50
2022-11-06T12:52:02.369Z,6.50
2022-11-06T12:53:06.265Z,6.50
2022-11-06T12:54:02.760Z,6.50
2022-11-06T12:55:02.871Z,6.50
2022-11-06T12:56:02.828Z,6.00
2022-11-06T12:57:02.678Z,6.00